SWR725 LSZH-EDDM
Flight info
| Callsign | SWR725 |
|---|---|
| Flight time | 0h 36m |
| Altitude | 22000 |
| Route | DEGES Z6 NUNRI/N0423F210 T103 BETOS BETOS1B |
| Aircraft | A359/H-SDE2E3GHIJ3J4J5LM1ORWXY/LB1D1 |
Departure
| Time | 2026-05-04 18:12 |
|---|---|
| Airport | Zürich Airport (LSZH) |
Arrival
| Time | 2026-05-04 18:49 |
|---|---|
| Airport | Munich Airport (EDDM) |
| Time | Latitude | Longitude | Altitude | Speed | Heading |
|---|---|---|---|---|---|
| 2026-05-04 17:47 | 47.46193 | 8.55379 | 1413 ft | 0 kts | 186° |
| 2026-05-04 18:02 | 47.46204 | 8.55380 | 1406 ft | 4 kts | 186° |
| 2026-05-04 18:02 | 47.46230 | 8.55385 | 1406 ft | 4 kts | 186° |
| 2026-05-04 18:02 | 47.46251 | 8.55388 | 1413 ft | 4 kts | 208° |
| 2026-05-04 18:02 | 47.46262 | 8.55413 | 1413 ft | 4 kts | 275° |
| 2026-05-04 18:03 | 47.46260 | 8.55450 | 1413 ft | 4 kts | 276° |
| 2026-05-04 18:03 | 47.46258 | 8.55474 | 1410 ft | 0 kts | 276° |
| 2026-05-04 18:06 | 47.46264 | 8.55394 | 1412 ft | 19 kts | 276° |
| 2026-05-04 18:06 | 47.46278 | 8.55162 | 1405 ft | 18 kts | 275° |
| 2026-05-04 18:06 | 47.46274 | 8.54985 | 1413 ft | 13 kts | 234° |
| 2026-05-04 18:07 | 47.46194 | 8.54970 | 1407 ft | 12 kts | 168° |
| 2026-05-04 18:07 | 47.46109 | 8.55022 | 1413 ft | 14 kts | 153° |
| 2026-05-04 18:07 | 47.46010 | 8.55092 | 1413 ft | 17 kts | 154° |
| 2026-05-04 18:07 | 47.45908 | 8.55197 | 1411 ft | 19 kts | 122° |
| 2026-05-04 18:08 | 47.45881 | 8.55397 | 1404 ft | 22 kts | 97° |
| 2026-05-04 18:08 | 47.45864 | 8.55632 | 1410 ft | 24 kts | 96° |
| 2026-05-04 18:08 | 47.45846 | 8.55895 | 1406 ft | 27 kts | 96° |
| 2026-05-04 18:08 | 47.45825 | 8.56166 | 1410 ft | 28 kts | 94° |
| 2026-05-04 18:09 | 47.45795 | 8.56642 | 1415 ft | 18 kts | 95° |
| 2026-05-04 18:09 | 47.45771 | 8.56960 | 1413 ft | 14 kts | 107° |
| 2026-05-04 18:10 | 47.45754 | 8.57002 | 1413 ft | 0 kts | 133° |
| 2026-05-04 18:10 | 47.45731 | 8.57022 | 1413 ft | 8 kts | 156° |
| 2026-05-04 18:11 | 47.45698 | 8.57026 | 1417 ft | 3 kts | 189° |
| 2026-05-04 18:11 | 47.45667 | 8.56996 | 1420 ft | 7 kts | 235° |
| 2026-05-04 18:11 | 47.45664 | 8.56944 | 1415 ft | 0 kts | 272° |
| 2026-05-04 18:12 | 47.45664 | 8.56923 | 1415 ft | 13 kts | 272° |
| 2026-05-04 18:12 | 47.45704 | 8.56314 | 1412 ft | 108 kts | 276° |
| 2026-05-04 18:12 | 47.45821 | 8.54767 | 1510 ft | 183 kts | 277° |
| 2026-05-04 18:12 | 47.46015 | 8.52796 | 2477 ft | 201 kts | 271° |
| 2026-05-04 18:13 | 47.45915 | 8.50669 | 3380 ft | 214 kts | 262° |
| 2026-05-04 18:13 | 47.45619 | 8.48515 | 4235 ft | 212 kts | 257° |
| 2026-05-04 18:13 | 47.44657 | 8.44313 | 5701 ft | 220 kts | 245° |
| 2026-05-04 18:14 | 47.43997 | 8.42281 | 6616 ft | 224 kts | 240° |
| 2026-05-04 18:14 | 47.43272 | 8.40204 | 7536 ft | 227 kts | 240° |
| 2026-05-04 18:14 | 47.42436 | 8.38242 | 8553 ft | 226 kts | 227° |
| 2026-05-04 18:15 | 47.39633 | 8.36629 | 10482 ft | 228 kts | 173° |
| 2026-05-04 18:15 | 47.37426 | 8.38642 | 11843 ft | 246 kts | 127° |
| 2026-05-04 18:15 | 47.36883 | 8.41056 | 12641 ft | 260 kts | 95° |
| 2026-05-04 18:16 | 47.37322 | 8.43679 | 13427 ft | 273 kts | 59° |
| 2026-05-04 18:16 | 47.38607 | 8.45762 | 14190 ft | 278 kts | 40° |
| 2026-05-04 18:16 | 47.40107 | 8.47610 | 14969 ft | 282 kts | 38° |
| 2026-05-04 18:17 | 47.43152 | 8.51348 | 16619 ft | 289 kts | 39° |
| 2026-05-04 18:17 | 47.44663 | 8.53359 | 17465 ft | 294 kts | 47° |
| 2026-05-04 18:17 | 47.45987 | 8.59059 | 18557 ft | 315 kts | 89° |
| 2026-05-04 18:18 | 47.46085 | 8.62397 | 18838 ft | 335 kts | 91° |
| 2026-05-04 18:18 | 47.46172 | 8.65954 | 19119 ft | 356 kts | 90° |
| 2026-05-04 18:18 | 47.46283 | 8.69726 | 19410 ft | 375 kts | 90° |
| 2026-05-04 18:18 | 47.46416 | 8.73677 | 19717 ft | 394 kts | 90° |
| 2026-05-04 18:19 | 47.46598 | 8.82026 | 20677 ft | 416 kts | 97° |
| 2026-05-04 18:19 | 47.46157 | 8.86270 | 21390 ft | 419 kts | 104° |
| 2026-05-04 18:19 | 47.45548 | 8.90498 | 21849 ft | 421 kts | 105° |
| 2026-05-04 18:20 | 47.44927 | 8.94726 | 21988 ft | 422 kts | 105° |
| 2026-05-04 18:20 | 47.44315 | 8.98980 | 21996 ft | 423 kts | 105° |
| 2026-05-04 18:20 | 47.43711 | 9.03194 | 22000 ft | 424 kts | 105° |
| 2026-05-04 18:20 | 47.43094 | 9.07476 | 21990 ft | 425 kts | 105° |
| 2026-05-04 18:21 | 47.42476 | 9.11746 | 22008 ft | 424 kts | 105° |
| 2026-05-04 18:21 | 47.41977 | 9.16061 | 22009 ft | 427 kts | 98° |
| 2026-05-04 18:21 | 47.42091 | 9.20405 | 21995 ft | 432 kts | 82° |
| 2026-05-04 18:21 | 47.43004 | 9.24655 | 22009 ft | 435 kts | 67° |
| 2026-05-04 18:22 | 47.44308 | 9.28711 | 21976 ft | 435 kts | 68° |
| 2026-05-04 18:22 | 47.45433 | 9.32818 | 21996 ft | 435 kts | 70° |
| 2026-05-04 18:22 | 47.46488 | 9.37014 | 21990 ft | 435 kts | 71° |
| 2026-05-04 18:22 | 47.47501 | 9.41243 | 21960 ft | 435 kts | 72° |
| 2026-05-04 18:23 | 47.48495 | 9.45483 | 21965 ft | 435 kts | 72° |
| 2026-05-04 18:23 | 47.49483 | 9.49717 | 21968 ft | 435 kts | 72° |
| 2026-05-04 18:23 | 47.50472 | 9.53947 | 21969 ft | 435 kts | 72° |
| 2026-05-04 18:23 | 47.51463 | 9.58170 | 21964 ft | 435 kts | 72° |
| 2026-05-04 18:24 | 47.52459 | 9.62398 | 21968 ft | 435 kts | 72° |
| 2026-05-04 18:24 | 47.53446 | 9.66587 | 21952 ft | 435 kts | 72° |
| 2026-05-04 18:24 | 47.54443 | 9.70815 | 21963 ft | 434 kts | 72° |
| 2026-05-04 18:24 | 47.55435 | 9.75028 | 21972 ft | 434 kts | 72° |
| 2026-05-04 18:25 | 47.56429 | 9.79258 | 21968 ft | 433 kts | 72° |
| 2026-05-04 18:25 | 47.57419 | 9.83481 | 21973 ft | 433 kts | 72° |
| 2026-05-04 18:25 | 47.58406 | 9.87698 | 21977 ft | 433 kts | 72° |
| 2026-05-04 18:25 | 47.59391 | 9.91920 | 21981 ft | 433 kts | 72° |
| 2026-05-04 18:26 | 47.60362 | 9.96090 | 21917 ft | 437 kts | 72° |
| 2026-05-04 18:26 | 47.61374 | 10.00451 | 21654 ft | 454 kts | 72° |
| 2026-05-04 18:26 | 47.62405 | 10.04901 | 21403 ft | 457 kts | 72° |
| 2026-05-04 18:26 | 47.63443 | 10.09378 | 21175 ft | 457 kts | 72° |
| 2026-05-04 18:27 | 47.64474 | 10.13834 | 20934 ft | 455 kts | 72° |
| 2026-05-04 18:27 | 47.65498 | 10.18270 | 20690 ft | 453 kts | 72° |
| 2026-05-04 18:27 | 47.66516 | 10.22692 | 20455 ft | 452 kts | 72° |
| 2026-05-04 18:27 | 47.67517 | 10.27051 | 20238 ft | 451 kts | 72° |
| 2026-05-04 18:28 | 47.68527 | 10.31455 | 20017 ft | 449 kts | 72° |
| 2026-05-04 18:28 | 47.69533 | 10.35855 | 19799 ft | 448 kts | 72° |
| 2026-05-04 18:28 | 47.70531 | 10.40229 | 19572 ft | 446 kts | 73° |
| 2026-05-04 18:28 | 47.71514 | 10.44543 | 19365 ft | 445 kts | 73° |
| 2026-05-04 18:29 | 47.72518 | 10.48962 | 19151 ft | 444 kts | 73° |
| 2026-05-04 18:29 | 47.73492 | 10.53256 | 18940 ft | 443 kts | 73° |
| 2026-05-04 18:29 | 47.74473 | 10.57591 | 18707 ft | 441 kts | 73° |
| 2026-05-04 18:29 | 47.75449 | 10.61916 | 18517 ft | 440 kts | 72° |
| 2026-05-04 18:30 | 47.77372 | 10.70454 | 18059 ft | 436 kts | 73° |
| 2026-05-04 18:30 | 47.78334 | 10.74737 | 17829 ft | 435 kts | 73° |
| 2026-05-04 18:30 | 47.79291 | 10.79008 | 17584 ft | 433 kts | 73° |
| 2026-05-04 18:31 | 47.80241 | 10.83255 | 17344 ft | 432 kts | 73° |
| 2026-05-04 18:31 | 47.81185 | 10.87485 | 17103 ft | 430 kts | 73° |
| 2026-05-04 18:31 | 47.82126 | 10.91710 | 16870 ft | 428 kts | 73° |
| 2026-05-04 18:31 | 47.83048 | 10.95856 | 16643 ft | 426 kts | 73° |
| 2026-05-04 18:32 | 47.83976 | 11.00040 | 16427 ft | 424 kts | 73° |
| 2026-05-04 18:32 | 47.84901 | 11.04209 | 16184 ft | 423 kts | 73° |
| 2026-05-04 18:32 | 47.86065 | 11.08227 | 16019 ft | 422 kts | 62° |
| 2026-05-04 18:32 | 47.87782 | 11.11766 | 15983 ft | 421 kts | 47° |
| 2026-05-04 18:33 | 47.89842 | 11.14800 | 15910 ft | 417 kts | 43° |
| 2026-05-04 18:33 | 47.92006 | 11.17590 | 15489 ft | 407 kts | 39° |
| 2026-05-04 18:33 | 47.94229 | 11.20250 | 14631 ft | 411 kts | 38° |
| 2026-05-04 18:33 | 47.96470 | 11.22841 | 13894 ft | 411 kts | 38° |
| 2026-05-04 18:34 | 47.98740 | 11.25457 | 13141 ft | 408 kts | 38° |
| 2026-05-04 18:34 | 48.00971 | 11.28052 | 12450 ft | 404 kts | 38° |
| 2026-05-04 18:34 | 48.03165 | 11.30633 | 11785 ft | 399 kts | 39° |
| 2026-05-04 18:34 | 48.05326 | 11.33201 | 11220 ft | 394 kts | 39° |
| 2026-05-04 18:35 | 48.07428 | 11.35716 | 10978 ft | 378 kts | 39° |
| 2026-05-04 18:35 | 48.09428 | 11.38111 | 10951 ft | 357 kts | 39° |
| 2026-05-04 18:35 | 48.11289 | 11.40350 | 10951 ft | 336 kts | 39° |
| 2026-05-04 18:35 | 48.13062 | 11.42489 | 10951 ft | 320 kts | 39° |
| 2026-05-04 18:36 | 48.14784 | 11.44568 | 10946 ft | 316 kts | 39° |
| 2026-05-04 18:36 | 48.16501 | 11.46641 | 10941 ft | 317 kts | 39° |
| 2026-05-04 18:36 | 48.18223 | 11.48712 | 10940 ft | 317 kts | 39° |
| 2026-05-04 18:36 | 48.19943 | 11.50788 | 10940 ft | 317 kts | 39° |
| 2026-05-04 18:37 | 48.21559 | 11.53043 | 10941 ft | 317 kts | 48° |
| 2026-05-04 18:37 | 48.22893 | 11.55660 | 10939 ft | 315 kts | 60° |
| 2026-05-04 18:37 | 48.23764 | 11.58598 | 10885 ft | 309 kts | 77° |
| 2026-05-04 18:37 | 48.24201 | 11.61718 | 10506 ft | 304 kts | 84° |
| 2026-05-04 18:38 | 48.24509 | 11.64866 | 10036 ft | 304 kts | 85° |
| 2026-05-04 18:38 | 48.24781 | 11.68002 | 9695 ft | 299 kts | 85° |
| 2026-05-04 18:38 | 48.25032 | 11.71046 | 9264 ft | 297 kts | 85° |
| 2026-05-04 18:38 | 48.25277 | 11.74127 | 8815 ft | 295 kts | 85° |
| 2026-05-04 18:39 | 48.25517 | 11.77178 | 8389 ft | 292 kts | 85° |
| 2026-05-04 18:39 | 48.25751 | 11.80199 | 8042 ft | 289 kts | 85° |
| 2026-05-04 18:39 | 48.25980 | 11.83171 | 7944 ft | 289 kts | 85° |
| 2026-05-04 18:39 | 48.26210 | 11.86184 | 7936 ft | 290 kts | 85° |
| 2026-05-04 18:40 | 48.26439 | 11.89190 | 7936 ft | 289 kts | 85° |
| 2026-05-04 18:40 | 48.26590 | 11.91182 | 7936 ft | 289 kts | 85° |
| 2026-05-04 18:40 | 48.26891 | 11.95167 | 7704 ft | 291 kts | 85° |
| 2026-05-04 18:40 | 48.27118 | 11.98184 | 7302 ft | 289 kts | 85° |
| 2026-05-04 18:41 | 48.27342 | 12.01158 | 6933 ft | 285 kts | 85° |
| 2026-05-04 18:41 | 48.27491 | 12.03152 | 6668 ft | 283 kts | 85° |
| 2026-05-04 18:41 | 48.27707 | 12.06043 | 6281 ft | 280 kts | 85° |
| 2026-05-04 18:41 | 48.27922 | 12.08937 | 5867 ft | 278 kts | 84° |
| 2026-05-04 18:42 | 48.28134 | 12.11800 | 5513 ft | 273 kts | 84° |
| 2026-05-04 18:42 | 48.28342 | 12.14627 | 5119 ft | 270 kts | 84° |
| 2026-05-04 18:42 | 48.28582 | 12.17412 | 4709 ft | 268 kts | 79° |
| 2026-05-04 18:42 | 48.29367 | 12.19907 | 4277 ft | 266 kts | 51° |
| 2026-05-04 18:43 | 48.30839 | 12.21535 | 4018 ft | 265 kts | 21° |
| 2026-05-04 18:43 | 48.32596 | 12.21888 | 3974 ft | 251 kts | 353° |
| 2026-05-04 18:43 | 48.34141 | 12.20956 | 3993 ft | 233 kts | 323° |
| 2026-05-04 18:43 | 48.35118 | 12.19119 | 3991 ft | 219 kts | 299° |
| 2026-05-04 18:44 | 48.35769 | 12.17063 | 3979 ft | 217 kts | 295° |
| 2026-05-04 18:44 | 48.36171 | 12.15678 | 3980 ft | 218 kts | 294° |
| 2026-05-04 18:44 | 48.36830 | 12.12832 | 3986 ft | 219 kts | 278° |
| 2026-05-04 18:44 | 48.36839 | 12.10544 | 3994 ft | 219 kts | 263° |
| 2026-05-04 18:45 | 48.36634 | 12.08266 | 3988 ft | 219 kts | 261° |
| 2026-05-04 18:45 | 48.36441 | 12.05985 | 3994 ft | 220 kts | 263° |
| 2026-05-04 18:45 | 48.36264 | 12.03726 | 3981 ft | 211 kts | 263° |
| 2026-05-04 18:45 | 48.36100 | 12.01623 | 4017 ft | 200 kts | 263° |
| 2026-05-04 18:46 | 48.35940 | 11.99563 | 3969 ft | 198 kts | 263° |
| 2026-05-04 18:46 | 48.35783 | 11.97499 | 3729 ft | 198 kts | 263° |
| 2026-05-04 18:46 | 48.35626 | 11.95436 | 3460 ft | 198 kts | 263° |
| 2026-05-04 18:46 | 48.35468 | 11.93368 | 3199 ft | 199 kts | 263° |
| 2026-05-04 18:47 | 48.35311 | 11.91324 | 2937 ft | 199 kts | 263° |
| 2026-05-04 18:47 | 48.35152 | 11.89253 | 2682 ft | 198 kts | 264° |
| 2026-05-04 18:47 | 48.34997 | 11.87230 | 2422 ft | 188 kts | 264° |
| 2026-05-04 18:47 | 48.34852 | 11.85361 | 2161 ft | 172 kts | 264° |
| 2026-05-04 18:48 | 48.34721 | 11.83662 | 1943 ft | 159 kts | 264° |
| 2026-05-04 18:48 | 48.34598 | 11.82060 | 1729 ft | 149 kts | 264° |
| 2026-05-04 18:48 | 48.34482 | 11.80553 | 1535 ft | 140 kts | 265° |
| 2026-05-04 18:48 | 48.34379 | 11.79181 | 1492 ft | 115 kts | 263° |
| 2026-05-04 18:49 | 48.34303 | 11.78219 | 1482 ft | 72 kts | 261° |
| 2026-05-04 18:49 | 48.34260 | 11.77605 | 1482 ft | 44 kts | 264° |
| 2026-05-04 18:49 | 48.34274 | 11.77226 | 1484 ft | 29 kts | 283° |
| 2026-05-04 18:49 | 48.34331 | 11.77020 | 1479 ft | 15 kts | 294° |
| 2026-05-04 18:50 | 48.34379 | 11.76854 | 1478 ft | 16 kts | 293° |
| 2026-05-04 18:50 | 48.34447 | 11.76724 | 1479 ft | 16 kts | 328° |
| 2026-05-04 18:50 | 48.34532 | 11.76705 | 1481 ft | 11 kts | 20° |
| 2026-05-04 18:50 | 48.34575 | 11.76805 | 1481 ft | 13 kts | 76° |
| 2026-05-04 18:51 | 48.34590 | 11.76957 | 1485 ft | 16 kts | 81° |
| 2026-05-04 18:51 | 48.34606 | 11.77135 | 1492 ft | 19 kts | 84° |
| 2026-05-04 18:51 | 48.34622 | 11.77345 | 1481 ft | 21 kts | 84° |
| 2026-05-04 18:51 | 48.34639 | 11.77582 | 1477 ft | 24 kts | 84° |
| 2026-05-04 18:52 | 48.34657 | 11.77839 | 1489 ft | 26 kts | 84° |
| 2026-05-04 18:52 | 48.34678 | 11.78121 | 1492 ft | 28 kts | 84° |
| 2026-05-04 18:52 | 48.34702 | 11.78425 | 1483 ft | 30 kts | 83° |
| 2026-05-04 18:52 | 48.34726 | 11.78745 | 1477 ft | 31 kts | 83° |
| 2026-05-04 18:53 | 48.34751 | 11.79030 | 1484 ft | 26 kts | 83° |
| 2026-05-04 18:53 | 48.34767 | 11.79253 | 1480 ft | 15 kts | 83° |
| 2026-05-04 18:53 | 48.34780 | 11.79425 | 1490 ft | 18 kts | 83° |
| 2026-05-04 18:53 | 48.34795 | 11.79609 | 1478 ft | 17 kts | 78° |
| 2026-05-04 18:54 | 48.34875 | 11.79688 | 1481 ft | 3 kts | 358° |
| 2026-05-04 18:55 | 48.34876 | 11.79688 | 1482 ft | 1 kts | 358° |
| 2026-05-04 18:55 | 48.35004 | 11.79677 | 1484 ft | 13 kts | 356° |
| 2026-05-04 18:55 | 48.35075 | 11.79659 | 1476 ft | 7 kts | 324° |
| 2026-05-04 18:56 | 48.35101 | 11.79594 | 1483 ft | 8 kts | 289° |
| 2026-05-04 18:56 | 48.35134 | 11.79524 | 1476 ft | 7 kts | 332° |
| 2026-05-04 18:56 | 48.35191 | 11.79489 | 1483 ft | 11 kts | 338° |
| 2026-05-04 18:56 | 48.35248 | 11.79479 | 1484 ft | 8 kts | 359° |
| 2026-05-04 18:57 | 48.35298 | 11.79478 | 1479 ft | 1 kts | 359° |
| 2026-05-04 18:57 | 48.35311 | 11.79478 | 1483 ft | 4 kts | 358° |
| 2026-05-04 18:57 | 48.35327 | 11.79477 | 1484 ft | 0 kts | 358° |
| 2026-05-04 18:57 | 48.35358 | 11.79475 | 1491 ft | 13 kts | 358° |
| 2026-05-04 18:58 | 48.35454 | 11.79461 | 1484 ft | 11 kts | 353° |
| 2026-05-04 18:58 | 48.35510 | 11.79452 | 1488 ft | 10 kts | 353° |
| 2026-05-04 18:58 | 48.35588 | 11.79437 | 1477 ft | 13 kts | 353° |
| 2026-05-04 18:58 | 48.35688 | 11.79419 | 1476 ft | 16 kts | 353° |
| 2026-05-04 18:59 | 48.35775 | 11.79457 | 1478 ft | 13 kts | 58° |
| 2026-05-04 18:59 | 48.35793 | 11.79587 | 1476 ft | 13 kts | 82° |
| 2026-05-04 18:59 | 48.35809 | 11.79731 | 1483 ft | 15 kts | 82° |
| 2026-05-04 18:59 | 48.35823 | 11.79885 | 1482 ft | 12 kts | 82° |
| 2026-05-04 19:00 | 48.35821 | 11.80018 | 1488 ft | 13 kts | 116° |
| 2026-05-04 19:00 | 48.35755 | 11.80070 | 1483 ft | 11 kts | 169° |
| 2026-05-04 19:00 | 48.35676 | 11.80065 | 1476 ft | 11 kts | 210° |
| 2026-05-04 19:00 | 48.35652 | 11.80013 | 1476 ft | 4 kts | 266° |
| 2026-05-04 19:01 | 48.35649 | 11.79958 | 1476 ft | 0 kts | 265° |
| 2026-05-04 19:06 | 48.35650 | 11.79961 | 1476 ft | 0 kts | 263° |